sensor_id;sensor_type;location;lat;lon;timestamp;temperature;humidity
7572;DHT22;3827;49.928;8.548;2022-10-15T00:01:08;14.00;99.90
7572;DHT22;3827;49.928;8.548;2022-10-15T00:03:36;14.00;99.90
7572;DHT22;3827;49.928;8.548;2022-10-15T00:06:04;14.00;99.90
7572;DHT22;3827;49.928;8.548;2022-10-15T00:08:31;14.00;99.90
7572;DHT22;3827;49.928;8.548;2022-10-15T00:11:03;14.00;99.90
7572;DHT22;3827;49.928;8.548;2022-10-15T00:13:30;14.00;99.90
7572;DHT22;3827;49.928;8.548;2022-10-15T00:15:58;14.10;99.90
7572;DHT22;3827;49.928;8.548;2022-10-15T00:18:25;14.10;99.90
7572;DHT22;3827;49.928;8.548;2022-10-15T00:20:52;14.00;99.90
7572;DHT22;3827;49.928;8.548;2022-10-15T00:23:19;14.10;99.90
7572;DHT22;3827;49.928;8.548;2022-10-15T00:25:46;14.10;99.90
7572;DHT22;3827;49.928;8.548;2022-10-15T00:28:14;14.10;99.90
7572;DHT22;3827;49.928;8.548;2022-10-15T00:30:41;14.10;99.90
7572;DHT22;3827;49.928;8.548;2022-10-15T00:33:07;14.10;99.90
7572;DHT22;3827;49.928;8.548;2022-10-15T00:35:34;14.10;99.90
7572;DHT22;3827;49.928;8.548;2022-10-15T00:38:01;14.10;99.90
7572;DHT22;3827;49.928;8.548;2022-10-15T00:40:28;14.40;99.90
7572;DHT22;3827;49.928;8.548;2022-10-15T00:42:54;14.20;99.90
7572;DHT22;3827;49.928;8.548;2022-10-15T00:45:23;14.20;99.90
7572;DHT22;3827;49.928;8.548;2022-10-15T00:47:50;14.10;99.90
7572;DHT22;3827;49.928;8.548;2022-10-15T00:50:19;14.20;99.90
7572;DHT22;3827;49.928;8.548;2022-10-15T00:52:56;14.20;99.90
7572;DHT22;3827;49.928;8.548;2022-10-15T00:55:28;14.20;99.90
7572;DHT22;3827;49.928;8.548;2022-10-15T00:57:57;14.10;99.90
7572;DHT22;3827;49.928;8.548;2022-10-15T01:00:25;14.20;99.90
7572;DHT22;3827;49.928;8.548;2022-10-15T01:02:52;14.20;99.90
7572;DHT22;3827;49.928;8.548;2022-10-15T01:05:20;14.20;99.90
7572;DHT22;3827;49.928;8.548;2022-10-15T01:07:47;14.20;99.90
7572;DHT22;3827;49.928;8.548;2022-10-15T01:10:14;14.20;99.90
7572;DHT22;3827;49.928;8.548;2022-10-15T01:12:52;14.30;99.90
7572;DHT22;3827;49.928;8.548;2022-10-15T01:15:26;14.20;99.90
7572;DHT22;3827;49.928;8.548;2022-10-15T01:17:56;14.20;99.90
7572;DHT22;3827;49.928;8.548;2022-10-15T01:20:50;14.20;99.90
7572;DHT22;3827;49.928;8.548;2022-10-15T01:26:49;14.20;99.90
7572;DHT22;3827;49.928;8.548;2022-10-15T01:29:33;14.20;99.90
7572;DHT22;3827;49.928;8.548;2022-10-15T01:32:10;14.20;99.90
7572;DHT22;3827;49.928;8.548;2022-10-15T01:34:43;14.20;99.90
7572;DHT22;3827;49.928;8.548;2022-10-15T01:37:17;14.30;99.90
7572;DHT22;3827;49.928;8.548;2022-10-15T01:39:50;14.20;99.90
7572;DHT22;3827;49.928;8.548;2022-10-15T01:42:21;14.30;99.90
7572;DHT22;3827;49.928;8.548;2022-10-15T01:44:53;14.20;99.90
7572;DHT22;3827;49.928;8.548;2022-10-15T01:47:23;14.30;99.90
7572;DHT22;3827;49.928;8.548;2022-10-15T01:49:53;14.30;99.90
7572;DHT22;3827;49.928;8.548;2022-10-15T01:52:23;14.30;99.90
7572;DHT22;3827;49.928;8.548;2022-10-15T01:54:52;14.20;99.90
7572;DHT22;3827;49.928;8.548;2022-10-15T01:57:20;14.30;99.90
7572;DHT22;3827;49.928;8.548;2022-10-15T01:59:49;14.30;99.90
7572;DHT22;3827;49.928;8.548;2022-10-15T02:02:16;14.40;99.90
7572;DHT22;3827;49.928;8.548;2022-10-15T02:04:44;14.30;99.90
7572;DHT22;3827;49.928;8.548;2022-10-15T02:07:15;14.30;99.90
7572;DHT22;3827;49.928;8.548;2022-10-15T02:09:48;14.30;99.90
7572;DHT22;3827;49.928;8.548;2022-10-15T02:12:26;14.30;99.90
7572;DHT22;3827;49.928;8.548;2022-10-15T02:15:00;14.20;99.90
7572;DHT22;3827;49.928;8.548;2022-10-15T02:17:33;14.30;99.90
7572;DHT22;3827;49.928;8.548;2022-10-15T02:20:05;14.30;99.90
7572;DHT22;3827;49.928;8.548;2022-10-15T02:22:38;14.30;99.90
7572;DHT22;3827;49.928;8.548;2022-10-15T02:25:13;14.30;99.90
7572;DHT22;3827;49.928;8.548;2022-10-15T02:27:43;14.30;99.90
7572;DHT22;3827;49.928;8.548;2022-10-15T02:30:12;14.30;99.90
7572;DHT22;3827;49.928;8.548;2022-10-15T02:32:40;14.30;99.90
7572;DHT22;3827;49.928;8.548;2022-10-15T02:35:09;14.30;99.90
7572;DHT22;3827;49.928;8.548;2022-10-15T02:37:42;14.30;99.90
7572;DHT22;3827;49.928;8.548;2022-10-15T02:40:10;14.30;99.90
7572;DHT22;3827;49.928;8.548;2022-10-15T02:42:37;14.30;99.90
7572;DHT22;3827;49.928;8.548;2022-10-15T02:45:05;14.30;99.90
7572;DHT22;3827;49.928;8.548;2022-10-15T02:47:32;14.30;99.90
7572;DHT22;3827;49.928;8.548;2022-10-15T02:49:59;14.30;99.90
7572;DHT22;3827;49.928;8.548;2022-10-15T02:52:27;14.30;99.90
7572;DHT22;3827;49.928;8.548;2022-10-15T02:54:54;14.30;99.90
7572;DHT22;3827;49.928;8.548;2022-10-15T02:57:21;14.40;99.90
7572;DHT22;3827;49.928;8.548;2022-10-15T02:59:48;14.30;99.90
7572;DHT22;3827;49.928;8.548;2022-10-15T03:02:15;14.30;99.90
7572;DHT22;3827;49.928;8.548;2022-10-15T03:04:41;14.30;99.90
7572;DHT22;3827;49.928;8.548;2022-10-15T03:07:08;14.30;99.90
7572;DHT22;3827;49.928;8.548;2022-10-15T03:09:36;14.40;99.90
7572;DHT22;3827;49.928;8.548;2022-10-15T03:12:03;14.30;99.90
7572;DHT22;3827;49.928;8.548;2022-10-15T03:14:30;14.40;99.90
7572;DHT22;3827;49.928;8.548;2022-10-15T03:16:57;14.40;99.90
7572;DHT22;3827;49.928;8.548;2022-10-15T03:19:24;14.40;99.90
7572;DHT22;3827;49.928;8.548;2022-10-15T03:21:50;14.40;99.90
7572;DHT22;3827;49.928;8.548;2022-10-15T03:24:17;14.90;99.90
7572;DHT22;3827;49.928;8.548;2022-10-15T03:26:45;14.30;99.90
7572;DHT22;3827;49.928;8.548;2022-10-15T03:29:12;14.40;99.90
7572;DHT22;3827;49.928;8.548;2022-10-15T03:31:39;14.40;99.90
7572;DHT22;3827;49.928;8.548;2022-10-15T03:34:06;14.40;99.90
7572;DHT22;3827;49.928;8.548;2022-10-15T03:36:32;14.30;99.90
7572;DHT22;3827;49.928;8.548;2022-10-15T03:38:59;14.30;99.90
7572;DHT22;3827;49.928;8.548;2022-10-15T03:41:26;14.40;99.90
7572;DHT22;3827;49.928;8.548;2022-10-15T03:43:55;14.40;99.90
7572;DHT22;3827;49.928;8.548;2022-10-15T03:46:25;14.40;99.90
7572;DHT22;3827;49.928;8.548;2022-10-15T03:48:52;14.40;99.90
7572;DHT22;3827;49.928;8.548;2022-10-15T03:51:19;14.40;99.90
7572;DHT22;3827;49.928;8.548;2022-10-15T03:53:46;14.30;99.90
7572;DHT22;3827;49.928;8.548;2022-10-15T03:56:13;14.40;99.90
7572;DHT22;3827;49.928;8.548;2022-10-15T03:58:40;14.30;99.90
7572;DHT22;3827;49.928;8.548;2022-10-15T04:01:09;14.30;99.90
7572;DHT22;3827;49.928;8.548;2022-10-15T04:03:36;14.30;99.90
7572;DHT22;3827;49.928;8.548;2022-10-15T04:06:03;14.30;99.90
7572;DHT22;3827;49.928;8.548;2022-10-15T04:08:30;14.30;99.90
7572;DHT22;3827;49.928;8.548;2022-10-15T04:10:58;14.30;99.90
7572;DHT22;3827;49.928;8.548;2022-10-15T04:13:25;14.30;99.90
7572;DHT22;3827;49.928;8.548;2022-10-15T04:15:52;14.30;99.90
7572;DHT22;3827;49.928;8.548;2022-10-15T04:18:20;14.30;99.90
7572;DHT22;3827;49.928;8.548;2022-10-15T04:20:48;14.30;99.90
7572;DHT22;3827;49.928;8.548;2022-10-15T04:23:16;14.30;99.90
7572;DHT22;3827;49.928;8.548;2022-10-15T04:25:43;14.20;99.90
7572;DHT22;3827;49.928;8.548;2022-10-15T04:28:10;14.70;99.90
7572;DHT22;3827;49.928;8.548;2022-10-15T04:30:37;14.20;99.90
7572;DHT22;3827;49.928;8.548;2022-10-15T04:33:04;14.30;99.90
7572;DHT22;3827;49.928;8.548;2022-10-15T04:35:32;14.30;99.90
7572;DHT22;3827;49.928;8.548;2022-10-15T04:37:59;14.20;99.90
7572;DHT22;3827;49.928;8.548;2022-10-15T04:40:26;14.60;99.90
7572;DHT22;3827;49.928;8.548;2022-10-15T04:42:53;14.20;99.90
7572;DHT22;3827;49.928;8.548;2022-10-15T04:45:20;14.20;99.90
7572;DHT22;3827;49.928;8.548;2022-10-15T04:47:47;14.20;99.90
7572;DHT22;3827;49.928;8.548;2022-10-15T04:50:14;14.20;99.90
7572;DHT22;3827;49.928;8.548;2022-10-15T04:52:42;14.20;99.90
7572;DHT22;3827;49.928;8.548;2022-10-15T04:55:09;14.20;99.90
7572;DHT22;3827;49.928;8.548;2022-10-15T04:57:35;14.70;99.90
7572;DHT22;3827;49.928;8.548;2022-10-15T05:00:03;14.20;99.90
7572;DHT22;3827;49.928;8.548;2022-10-15T05:02:30;14.20;99.90
7572;DHT22;3827;49.928;8.548;2022-10-15T05:04:57;14.20;99.90
7572;DHT22;3827;49.928;8.548;2022-10-15T05:07:24;14.20;99.90
7572;DHT22;3827;49.928;8.548;2022-10-15T05:09:52;14.70;99.90
7572;DHT22;3827;49.928;8.548;2022-10-15T05:12:19;14.10;99.90
7572;DHT22;3827;49.928;8.548;2022-10-15T05:14:46;14.10;99.90
7572;DHT22;3827;49.928;8.548;2022-10-15T05:17:13;14.10;99.90
7572;DHT22;3827;49.928;8.548;2022-10-15T05:19:39;14.10;99.90
7572;DHT22;3827;49.928;8.548;2022-10-15T05:22:06;14.10;99.90
7572;DHT22;3827;49.928;8.548;2022-10-15T05:24:33;14.10;99.90
7572;DHT22;3827;49.928;8.548;2022-10-15T05:27:01;14.00;99.90
7572;DHT22;3827;49.928;8.548;2022-10-15T05:29:28;14.10;99.90
7572;DHT22;3827;49.928;8.548;2022-10-15T05:31:54;14.10;99.90
7572;DHT22;3827;49.928;8.548;2022-10-15T05:34:21;14.00;99.90
7572;DHT22;3827;49.928;8.548;2022-10-15T05:36:49;14.00;99.90
7572;DHT22;3827;49.928;8.548;2022-10-15T05:39:15;14.00;99.90
7572;DHT22;3827;49.928;8.548;2022-10-15T05:41:42;14.00;99.90
7572;DHT22;3827;49.928;8.548;2022-10-15T05:44:10;14.00;99.90
7572;DHT22;3827;49.928;8.548;2022-10-15T05:46:37;14.00;99.90
7572;DHT22;3827;49.928;8.548;2022-10-15T05:49:04;14.00;99.90
7572;DHT22;3827;49.928;8.548;2022-10-15T05:51:31;14.00;99.90
7572;DHT22;3827;49.928;8.548;2022-10-15T05:53:58;14.00;99.90
7572;DHT22;3827;49.928;8.548;2022-10-15T05:56:25;14.00;99.90
7572;DHT22;3827;49.928;8.548;2022-10-15T05:58:52;14.00;99.90
7572;DHT22;3827;49.928;8.548;2022-10-15T06:01:21;14.00;99.90
7572;DHT22;3827;49.928;8.548;2022-10-15T06:03:48;14.00;99.90
7572;DHT22;3827;49.928;8.548;2022-10-15T06:06:16;14.40;99.90
7572;DHT22;3827;49.928;8.548;2022-10-15T06:08:44;14.10;99.90
7572;DHT22;3827;49.928;8.548;2022-10-15T06:11:11;14.10;99.90
7572;DHT22;3827;49.928;8.548;2022-10-15T06:13:39;14.10;99.90
7572;DHT22;3827;49.928;8.548;2022-10-15T06:16:06;14.10;99.90
7572;DHT22;3827;49.928;8.548;2022-10-15T06:18:35;14.10;99.90
7572;DHT22;3827;49.928;8.548;2022-10-15T06:21:03;14.10;99.90
7572;DHT22;3827;49.928;8.548;2022-10-15T06:23:30;14.10;99.90
7572;DHT22;3827;49.928;8.548;2022-10-15T06:26:01;14.30;99.90
7572;DHT22;3827;49.928;8.548;2022-10-15T06:28:28;14.10;99.90
7572;DHT22;3827;49.928;8.548;2022-10-15T06:30:57;14.10;99.90
7572;DHT22;3827;49.928;8.548;2022-10-15T06:33:24;14.10;99.90
7572;DHT22;3827;49.928;8.548;2022-10-15T06:35:52;14.10;99.90
7572;DHT22;3827;49.928;8.548;2022-10-15T06:38:19;14.10;99.90
7572;DHT22;3827;49.928;8.548;2022-10-15T06:40:46;14.20;99.90
7572;DHT22;3827;49.928;8.548;2022-10-15T06:43:13;14.10;99.90
7572;DHT22;3827;49.928;8.548;2022-10-15T06:45:41;14.20;99.90
7572;DHT22;3827;49.928;8.548;2022-10-15T06:48:09;14.20;99.90
7572;DHT22;3827;49.928;8.548;2022-10-15T06:50:37;14.20;99.90
7572;DHT22;3827;49.928;8.548;2022-10-15T06:53:06;14.20;99.90
7572;DHT22;3827;49.928;8.548;2022-10-15T06:55:34;14.20;99.90
7572;DHT22;3827;49.928;8.548;2022-10-15T06:58:01;14.20;99.90
7572;DHT22;3827;49.928;8.548;2022-10-15T07:00:28;14.20;99.90
7572;DHT22;3827;49.928;8.548;2022-10-15T07:02:55;14.20;99.90
7572;DHT22;3827;49.928;8.548;2022-10-15T07:05:21;14.20;99.90
7572;DHT22;3827;49.928;8.548;2022-10-15T07:07:51;14.20;99.90
7572;DHT22;3827;49.928;8.548;2022-10-15T07:10:20;14.30;99.90
7572;DHT22;3827;49.928;8.548;2022-10-15T07:12:47;14.30;99.90
7572;DHT22;3827;49.928;8.548;2022-10-15T07:15:14;14.30;99.90
7572;DHT22;3827;49.928;8.548;2022-10-15T07:17:46;14.30;99.90
7572;DHT22;3827;49.928;8.548;2022-10-15T07:20:13;14.30;99.90
7572;DHT22;3827;49.928;8.548;2022-10-15T07:22:40;14.40;99.90
7572;DHT22;3827;49.928;8.548;2022-10-15T07:25:08;14.30;99.90
7572;DHT22;3827;49.928;8.548;2022-10-15T07:27:37;14.40;99.90
7572;DHT22;3827;49.928;8.548;2022-10-15T07:30:05;14.50;99.90
7572;DHT22;3827;49.928;8.548;2022-10-15T07:32:32;14.50;99.90
7572;DHT22;3827;49.928;8.548;2022-10-15T07:34:59;14.50;99.90
7572;DHT22;3827;49.928;8.548;2022-10-15T07:37:26;14.60;99.90
7572;DHT22;3827;49.928;8.548;2022-10-15T07:39:53;14.60;99.90
7572;DHT22;3827;49.928;8.548;2022-10-15T07:42:20;14.70;99.90
7572;DHT22;3827;49.928;8.548;2022-10-15T07:44:48;14.80;99.90
7572;DHT22;3827;49.928;8.548;2022-10-15T07:47:14;14.90;99.90
7572;DHT22;3827;49.928;8.548;2022-10-15T07:49:41;14.90;99.90
7572;DHT22;3827;49.928;8.548;2022-10-15T07:52:09;15.00;99.90
7572;DHT22;3827;49.928;8.548;2022-10-15T07:54:36;15.30;99.90
7572;DHT22;3827;49.928;8.548;2022-10-15T07:57:03;15.10;99.90
7572;DHT22;3827;49.928;8.548;2022-10-15T07:59:31;15.20;99.90
7572;DHT22;3827;49.928;8.548;2022-10-15T08:01:59;15.30;99.90
7572;DHT22;3827;49.928;8.548;2022-10-15T08:04:26;15.40;99.90
7572;DHT22;3827;49.928;8.548;2022-10-15T08:06:53;15.40;99.90
7572;DHT22;3827;49.928;8.548;2022-10-15T08:09:20;15.60;99.90
7572;DHT22;3827;49.928;8.548;2022-10-15T08:11:47;15.80;99.90
7572;DHT22;3827;49.928;8.548;2022-10-15T08:14:14;15.80;99.90
7572;DHT22;3827;49.928;8.548;2022-10-15T08:16:40;15.80;99.90
7572;DHT22;3827;49.928;8.548;2022-10-15T08:19:09;15.90;99.90
7572;DHT22;3827;49.928;8.548;2022-10-15T08:21:35;15.90;99.90
7572;DHT22;3827;49.928;8.548;2022-10-15T08:24:02;16.20;99.90
7572;DHT22;3827;49.928;8.548;2022-10-15T08:26:30;15.90;99.90
7572;DHT22;3827;49.928;8.548;2022-10-15T08:28:57;16.00;99.90
7572;DHT22;3827;49.928;8.548;2022-10-15T08:31:23;16.10;99.90
7572;DHT22;3827;49.928;8.548;2022-10-15T08:33:50;16.50;99.90
7572;DHT22;3827;49.928;8.548;2022-10-15T08:36:18;16.20;99.90
7572;DHT22;3827;49.928;8.548;2022-10-15T08:38:45;16.30;99.90
7572;DHT22;3827;49.928;8.548;2022-10-15T08:41:25;16.40;99.90
7572;DHT22;3827;49.928;8.548;2022-10-15T08:43:52;16.40;99.90
7572;DHT22;3827;49.928;8.548;2022-10-15T08:46:22;16.40;99.90
7572;DHT22;3827;49.928;8.548;2022-10-15T08:48:53;16.50;99.90
7572;DHT22;3827;49.928;8.548;2022-10-15T08:51:23;16.50;99.90
7572;DHT22;3827;49.928;8.548;2022-10-15T08:53:53;16.60;99.90
7572;DHT22;3827;49.928;8.548;2022-10-15T08:56:23;16.70;99.90
7572;DHT22;3827;49.928;8.548;2022-10-15T08:58:58;16.70;99.90
7572;DHT22;3827;49.928;8.548;2022-10-15T09:01:32;16.70;99.90
7572;DHT22;3827;49.928;8.548;2022-10-15T09:04:12;16.80;99.90
7572;DHT22;3827;49.928;8.548;2022-10-15T09:06:41;16.80;99.90
7572;DHT22;3827;49.928;8.548;2022-10-15T09:09:14;16.80;99.90
7572;DHT22;3827;49.928;8.548;2022-10-15T09:11:53;16.90;99.90
7572;DHT22;3827;49.928;8.548;2022-10-15T09:14:25;16.80;99.90
7572;DHT22;3827;49.928;8.548;2022-10-15T09:16:52;16.80;99.90
7572;DHT22;3827;49.928;8.548;2022-10-15T09:19:21;16.90;99.90
7572;DHT22;3827;49.928;8.548;2022-10-15T09:21:50;16.90;99.90
7572;DHT22;3827;49.928;8.548;2022-10-15T09:24:21;17.00;99.90
7572;DHT22;3827;49.928;8.548;2022-10-15T09:26:55;17.00;99.90
7572;DHT22;3827;49.928;8.548;2022-10-15T09:29:30;17.10;99.90
7572;DHT22;3827;49.928;8.548;2022-10-15T09:32:05;17.10;99.90
7572;DHT22;3827;49.928;8.548;2022-10-15T09:34:36;17.10;99.90
7572;DHT22;3827;49.928;8.548;2022-10-15T09:37:13;17.10;99.90
7572;DHT22;3827;49.928;8.548;2022-10-15T09:39:53;17.20;99.90
7572;DHT22;3827;49.928;8.548;2022-10-15T09:42:30;17.30;99.90
7572;DHT22;3827;49.928;8.548;2022-10-15T09:44:59;17.40;99.90
7572;DHT22;3827;49.928;8.548;2022-10-15T09:47:29;17.40;99.90
7572;DHT22;3827;49.928;8.548;2022-10-15T09:49:56;17.50;99.90
7572;DHT22;3827;49.928;8.548;2022-10-15T09:52:39;17.60;99.90
7572;DHT22;3827;49.928;8.548;2022-10-15T09:55:17;17.70;99.90
7572;DHT22;3827;49.928;8.548;2022-10-15T09:57:52;17.90;99.90
7572;DHT22;3827;49.928;8.548;2022-10-15T10:00:20;17.90;99.90
7572;DHT22;3827;49.928;8.548;2022-10-15T10:03:02;17.90;99.90
7572;DHT22;3827;49.928;8.548;2022-10-15T10:05:32;17.80;99.90
7572;DHT22;3827;49.928;8.548;2022-10-15T10:08:09;17.80;99.90
7572;DHT22;3827;49.928;8.548;2022-10-15T10:10:37;17.60;99.90
7572;DHT22;3827;49.928;8.548;2022-10-15T10:13:17;17.40;99.90
7572;DHT22;3827;49.928;8.548;2022-10-15T10:15:47;17.30;99.90
7572;DHT22;3827;49.928;8.548;2022-10-15T10:18:18;17.20;99.90
7572;DHT22;3827;49.928;8.548;2022-10-15T10:20:52;17.10;99.90
7572;DHT22;3827;49.928;8.548;2022-10-15T10:23:27;17.10;99.90
7572;DHT22;3827;49.928;8.548;2022-10-15T10:25:57;17.20;99.90
7572;DHT22;3827;49.928;8.548;2022-10-15T10:28:28;17.40;99.90
7572;DHT22;3827;49.928;8.548;2022-10-15T10:31:05;17.40;99.90
7572;DHT22;3827;49.928;8.548;2022-10-15T10:33:41;17.50;99.90
7572;DHT22;3827;49.928;8.548;2022-10-15T10:36:20;17.70;99.90
7572;DHT22;3827;49.928;8.548;2022-10-15T10:38:57;17.80;99.90
7572;DHT22;3827;49.928;8.548;2022-10-15T10:41:47;18.00;99.90
7572;DHT22;3827;49.928;8.548;2022-10-15T10:44:26;17.90;99.90
7572;DHT22;3827;49.928;8.548;2022-10-15T10:47:18;17.80;99.90
7572;DHT22;3827;49.928;8.548;2022-10-15T10:49:48;17.60;99.90
7572;DHT22;3827;49.928;8.548;2022-10-15T10:52:21;17.50;99.90
7572;DHT22;3827;49.928;8.548;2022-10-15T10:54:57;17.40;99.90
7572;DHT22;3827;49.928;8.548;2022-10-15T10:57:33;17.40;99.90
7572;DHT22;3827;49.928;8.548;2022-10-15T11:00:04;17.50;99.90
7572;DHT22;3827;49.928;8.548;2022-10-15T11:02:32;17.60;99.90
7572;DHT22;3827;49.928;8.548;2022-10-15T11:05:04;17.50;99.90
7572;DHT22;3827;49.928;8.548;2022-10-15T11:07:36;17.50;99.90
7572;DHT22;3827;49.928;8.548;2022-10-15T11:10:12;17.70;99.90
7572;DHT22;3827;49.928;8.548;2022-10-15T11:13:04;17.90;99.90
7572;DHT22;3827;49.928;8.548;2022-10-15T11:15:43;18.10;99.90
7572;DHT22;3827;49.928;8.548;2022-10-15T11:18:31;18.40;99.90
7572;DHT22;3827;49.928;8.548;2022-10-15T11:21:06;18.50;99.90
7572;DHT22;3827;49.928;8.548;2022-10-15T11:23:50;18.50;99.90
7572;DHT22;3827;49.928;8.548;2022-10-15T11:26:37;18.90;99.90
7572;DHT22;3827;49.928;8.548;2022-10-15T11:29:11;18.40;99.90
7572;DHT22;3827;49.928;8.548;2022-10-15T11:31:48;18.30;99.90
7572;DHT22;3827;49.928;8.548;2022-10-15T11:34:33;18.20;99.90
7572;DHT22;3827;49.928;8.548;2022-10-15T11:37:14;17.90;99.90
7572;DHT22;3827;49.928;8.548;2022-10-15T11:39:54;17.80;99.90
7572;DHT22;3827;49.928;8.548;2022-10-15T11:42:28;17.70;99.90
7572;DHT22;3827;49.928;8.548;2022-10-15T11:45:28;17.60;99.90
7572;DHT22;3827;49.928;8.548;2022-10-15T11:47:59;17.50;99.90
7572;DHT22;3827;49.928;8.548;2022-10-15T11:50:33;17.80;99.90
7572;DHT22;3827;49.928;8.548;2022-10-15T11:53:21;17.50;99.90
7572;DHT22;3827;49.928;8.548;2022-10-15T11:55:52;17.60;99.90
7572;DHT22;3827;49.928;8.548;2022-10-15T11:58:27;17.60;99.90
7572;DHT22;3827;49.928;8.548;2022-10-15T12:00:59;17.60;99.90
7572;DHT22;3827;49.928;8.548;2022-10-15T12:03:30;17.50;99.90
7572;DHT22;3827;49.928;8.548;2022-10-15T12:06:04;17.50;99.90
7572;DHT22;3827;49.928;8.548;2022-10-15T12:08:35;17.40;99.90
7572;DHT22;3827;49.928;8.548;2022-10-15T12:11:10;17.40;99.90
7572;DHT22;3827;49.928;8.548;2022-10-15T12:13:43;17.30;99.90
7572;DHT22;3827;49.928;8.548;2022-10-15T12:16:18;17.30;99.90
7572;DHT22;3827;49.928;8.548;2022-10-15T12:18:52;17.30;99.90
7572;DHT22;3827;49.928;8.548;2022-10-15T12:21:33;17.30;99.90
7572;DHT22;3827;49.928;8.548;2022-10-15T12:24:00;17.30;99.90
7572;DHT22;3827;49.928;8.548;2022-10-15T12:26:29;17.50;99.90
7572;DHT22;3827;49.928;8.548;2022-10-15T12:29:00;17.30;99.90
7572;DHT22;3827;49.928;8.548;2022-10-15T12:31:45;17.30;99.90
7572;DHT22;3827;49.928;8.548;2022-10-15T12:34:31;17.30;99.90
7572;DHT22;3827;49.928;8.548;2022-10-15T12:37:04;17.30;99.90
7572;DHT22;3827;49.928;8.548;2022-10-15T12:39:35;17.40;99.90
7572;DHT22;3827;49.928;8.548;2022-10-15T12:42:03;17.40;99.90
7572;DHT22;3827;49.928;8.548;2022-10-15T12:44:32;17.50;99.90
7572;DHT22;3827;49.928;8.548;2022-10-15T12:47:00;17.50;99.90
7572;DHT22;3827;49.928;8.548;2022-10-15T12:50:03;17.50;99.90
7572;DHT22;3827;49.928;8.548;2022-10-15T12:52:53;17.50;99.90
7572;DHT22;3827;49.928;8.548;2022-10-15T12:55:26;17.50;99.90
7572;DHT22;3827;49.928;8.548;2022-10-15T12:58:02;17.50;99.90
7572;DHT22;3827;49.928;8.548;2022-10-15T13:00:36;17.50;99.90
7572;DHT22;3827;49.928;8.548;2022-10-15T13:03:35;17.50;99.90
7572;DHT22;3827;49.928;8.548;2022-10-15T13:06:14;17.50;99.90
7572;DHT22;3827;49.928;8.548;2022-10-15T13:08:43;17.60;99.90
7572;DHT22;3827;49.928;8.548;2022-10-15T13:11:18;17.70;99.90
7572;DHT22;3827;49.928;8.548;2022-10-15T13:13:48;17.70;99.90
7572;DHT22;3827;49.928;8.548;2022-10-15T13:16:18;17.70;99.90
7572;DHT22;3827;49.928;8.548;2022-10-15T13:18:49;17.80;99.90
7572;DHT22;3827;49.928;8.548;2022-10-15T13:21:16;17.80;99.90
7572;DHT22;3827;49.928;8.548;2022-10-15T13:23:45;17.90;99.90
7572;DHT22;3827;49.928;8.548;2022-10-15T13:26:18;17.90;99.90
7572;DHT22;3827;49.928;8.548;2022-10-15T13:28:46;17.90;99.90
7572;DHT22;3827;49.928;8.548;2022-10-15T13:31:23;17.90;99.90
7572;DHT22;3827;49.928;8.548;2022-10-15T13:33:52;17.90;99.90
7572;DHT22;3827;49.928;8.548;2022-10-15T13:36:22;17.90;99.90
7572;DHT22;3827;49.928;8.548;2022-10-15T13:38:56;17.90;99.90
7572;DHT22;3827;49.928;8.548;2022-10-15T13:41:28;17.80;99.90
7572;DHT22;3827;49.928;8.548;2022-10-15T13:43:56;17.80;99.90
7572;DHT22;3827;49.928;8.548;2022-10-15T13:46:28;17.80;99.90
7572;DHT22;3827;49.928;8.548;2022-10-15T13:48:57;17.80;99.90
7572;DHT22;3827;49.928;8.548;2022-10-15T13:51:30;17.90;99.90
7572;DHT22;3827;49.928;8.548;2022-10-15T13:53:58;18.00;99.90
7572;DHT22;3827;49.928;8.548;2022-10-15T13:56:28;18.00;99.90
7572;DHT22;3827;49.928;8.548;2022-10-15T13:58:57;18.00;99.90
7572;DHT22;3827;49.928;8.548;2022-10-15T14:01:27;18.00;99.90
7572;DHT22;3827;49.928;8.548;2022-10-15T14:03:55;18.00;99.90
7572;DHT22;3827;49.928;8.548;2022-10-15T14:06:24;17.80;99.90
7572;DHT22;3827;49.928;8.548;2022-10-15T14:08:53;17.70;99.90
7572;DHT22;3827;49.928;8.548;2022-10-15T14:11:21;17.70;99.90
7572;DHT22;3827;49.928;8.548;2022-10-15T14:13:49;17.70;99.90
7572;DHT22;3827;49.928;8.548;2022-10-15T14:16:19;17.70;99.90
7572;DHT22;3827;49.928;8.548;2022-10-15T14:18:50;17.60;99.90
7572;DHT22;3827;49.928;8.548;2022-10-15T14:21:18;17.60;99.90
7572;DHT22;3827;49.928;8.548;2022-10-15T14:23:46;17.60;99.90
7572;DHT22;3827;49.928;8.548;2022-10-15T14:26:14;17.60;99.90
7572;DHT22;3827;49.928;8.548;2022-10-15T14:28:42;17.60;99.90
7572;DHT22;3827;49.928;8.548;2022-10-15T14:31:27;17.50;99.90
7572;DHT22;3827;49.928;8.548;2022-10-15T14:33:56;17.50;99.90
7572;DHT22;3827;49.928;8.548;2022-10-15T14:36:26;17.50;99.90
7572;DHT22;3827;49.928;8.548;2022-10-15T14:38:53;17.50;99.90
7572;DHT22;3827;49.928;8.548;2022-10-15T14:41:26;17.60;99.90
7572;DHT22;3827;49.928;8.548;2022-10-15T14:44:14;17.70;99.90
7572;DHT22;3827;49.928;8.548;2022-10-15T14:46:44;17.70;99.90
7572;DHT22;3827;49.928;8.548;2022-10-15T14:49:19;17.60;99.90
7572;DHT22;3827;49.928;8.548;2022-10-15T14:51:55;17.60;99.90
7572;DHT22;3827;49.928;8.548;2022-10-15T14:54:27;17.70;99.90
7572;DHT22;3827;49.928;8.548;2022-10-15T14:56:57;17.30;99.90
7572;DHT22;3827;49.928;8.548;2022-10-15T14:59:33;17.70;99.90
7572;DHT22;3827;49.928;8.548;2022-10-15T15:02:02;17.80;99.90
7572;DHT22;3827;49.928;8.548;2022-10-15T15:04:39;17.80;99.90
7572;DHT22;3827;49.928;8.548;2022-10-15T15:07:12;17.90;99.90
7572;DHT22;3827;49.928;8.548;2022-10-15T15:09:39;18.00;99.90
7572;DHT22;3827;49.928;8.548;2022-10-15T15:12:16;18.00;99.90
7572;DHT22;3827;49.928;8.548;2022-10-15T15:14:43;18.00;99.90
7572;DHT22;3827;49.928;8.548;2022-10-15T15:17:16;18.00;99.90
7572;DHT22;3827;49.928;8.548;2022-10-15T15:19:44;17.90;99.90
7572;DHT22;3827;49.928;8.548;2022-10-15T15:22:14;17.90;99.90
7572;DHT22;3827;49.928;8.548;2022-10-15T15:24:41;17.90;99.90
7572;DHT22;3827;49.928;8.548;2022-10-15T15:27:20;17.90;99.90
7572;DHT22;3827;49.928;8.548;2022-10-15T15:29:49;17.80;99.90
7572;DHT22;3827;49.928;8.548;2022-10-15T15:32:16;17.70;99.90
7572;DHT22;3827;49.928;8.548;2022-10-15T15:34:45;17.70;99.90
7572;DHT22;3827;49.928;8.548;2022-10-15T15:37:13;17.70;99.90
7572;DHT22;3827;49.928;8.548;2022-10-15T15:39:41;17.60;99.90
7572;DHT22;3827;49.928;8.548;2022-10-15T15:42:11;17.60;99.90
7572;DHT22;3827;49.928;8.548;2022-10-15T15:44:38;17.50;99.90
7572;DHT22;3827;49.928;8.548;2022-10-15T15:47:05;17.50;99.90
7572;DHT22;3827;49.928;8.548;2022-10-15T15:49:32;17.40;99.90
7572;DHT22;3827;49.928;8.548;2022-10-15T15:52:00;17.40;99.90
7572;DHT22;3827;49.928;8.548;2022-10-15T15:54:27;17.30;99.90
7572;DHT22;3827;49.928;8.548;2022-10-15T15:56:54;17.30;99.90
7572;DHT22;3827;49.928;8.548;2022-10-15T15:59:20;17.20;99.90
7572;DHT22;3827;49.928;8.548;2022-10-15T16:01:47;17.20;99.90
7572;DHT22;3827;49.928;8.548;2022-10-15T16:04:14;17.10;99.90
7572;DHT22;3827;49.928;8.548;2022-10-15T16:06:42;17.10;99.90
7572;DHT22;3827;49.928;8.548;2022-10-15T16:09:10;17.00;99.90
7572;DHT22;3827;49.928;8.548;2022-10-15T16:11:37;17.00;99.90
7572;DHT22;3827;49.928;8.548;2022-10-15T16:14:04;17.00;99.90
7572;DHT22;3827;49.928;8.548;2022-10-15T16:16:30;16.90;99.90
7572;DHT22;3827;49.928;8.548;2022-10-15T16:18:57;17.00;99.90
7572;DHT22;3827;49.928;8.548;2022-10-15T16:21:26;16.90;99.90
7572;DHT22;3827;49.928;8.548;2022-10-15T16:23:53;17.10;99.90
7572;DHT22;3827;49.928;8.548;2022-10-15T16:26:21;16.80;99.90